createdAt,value
2018-08-23T00:00:57.692Z,19.75
2018-08-23T00:04:07.732Z,19.74
2018-08-23T00:07:14.830Z,19.75
2018-08-23T00:10:19.798Z,19.58
2018-08-23T00:13:24.693Z,19.57
2018-08-23T00:16:35.362Z,19.58
2018-08-23T00:19:40.246Z,19.51
2018-08-23T00:22:45.540Z,19.35
2018-08-23T00:25:50.424Z,19.26
2018-08-23T00:28:55.334Z,19.11
2018-08-23T00:32:07.774Z,19.03
2018-08-23T00:35:18.744Z,19.12
2018-08-23T00:38:23.668Z,19.21
2018-08-23T00:41:28.569Z,19.22
2018-08-23T00:44:51.116Z,19.20
2018-08-23T00:47:56.020Z,19.10
2018-08-23T00:51:03.551Z,19.11
2018-08-23T00:54:08.461Z,19.13
2018-08-23T00:57:13.341Z,19.13
2018-08-23T01:00:20.813Z,19.13
2018-08-23T01:03:26.129Z,19.12
2018-08-23T01:06:39.316Z,18.97
2018-08-23T01:09:44.627Z,18.92
2018-08-23T01:12:58.576Z,18.97
2018-08-23T01:16:03.582Z,18.97
2018-08-23T01:20:13.988Z,18.99
2018-08-23T01:23:18.963Z,18.91
2018-08-23T01:26:23.925Z,18.93
2018-08-23T01:29:29.719Z,18.92
2018-08-23T01:32:34.665Z,18.91
2018-08-23T01:35:40.293Z,18.89
2018-08-23T01:38:45.213Z,18.85
2018-08-23T01:41:50.138Z,18.77
2018-08-23T01:44:55.084Z,18.76
2018-08-23T01:48:02.689Z,18.74
2018-08-23T01:51:07.605Z,18.72
2018-08-23T01:54:12.529Z,18.72
2018-08-23T01:57:21.729Z,18.67
2018-08-23T02:00:31.764Z,18.63
2018-08-23T02:03:36.697Z,18.60
2018-08-23T02:06:41.593Z,18.54
2018-08-23T02:09:46.503Z,18.56
2018-08-23T02:12:54.428Z,18.55
2018-08-23T02:16:02.076Z,18.54
2018-08-23T02:19:06.989Z,18.50
2018-08-23T02:22:12.133Z,18.49
2018-08-23T02:25:17.221Z,18.49
2018-08-23T02:28:22.121Z,18.45
2018-08-23T02:31:27.008Z,18.42
2018-08-23T02:34:37.769Z,18.42
2018-08-23T02:40:47.108Z,18.30
2018-08-23T02:43:52.028Z,18.28
2018-08-23T02:46:56.968Z,18.28
2018-08-23T02:50:01.905Z,18.28
2018-08-23T02:53:24.320Z,18.26
2018-08-23T02:56:29.219Z,18.26
2018-08-23T02:59:34.128Z,18.27
2018-08-23T03:02:39.085Z,18.29
2018-08-23T03:05:43.984Z,18.27
2018-08-23T03:08:48.906Z,18.26
2018-08-23T03:11:55.796Z,18.23
2018-08-23T03:15:00.749Z,18.22
2018-08-23T03:18:05.688Z,18.23
2018-08-23T03:21:10.577Z,18.25
2018-08-23T03:24:18.836Z,18.25
2018-08-23T03:27:23.713Z,18.24
2018-08-23T03:30:28.617Z,18.22
2018-08-23T03:33:34.009Z,18.18
2018-08-23T03:36:38.916Z,18.20
2018-08-23T03:39:43.993Z,18.19
2018-08-23T03:42:48.911Z,18.16
2018-08-23T03:45:56.413Z,18.17
2018-08-23T03:49:04.834Z,18.21
2018-08-23T03:52:09.736Z,18.18
2018-08-23T03:55:19.938Z,18.15
2018-08-23T03:58:24.821Z,18.12
2018-08-23T04:01:29.769Z,18.08
2018-08-23T04:04:34.700Z,18.10
2018-08-23T04:07:40.498Z,18.12
2018-08-23T04:10:45.428Z,18.10
2018-08-23T04:13:50.360Z,18.07
2018-08-23T04:16:55.303Z,18.01
2018-08-23T04:20:00.221Z,17.84
2018-08-23T04:23:05.189Z,17.76
2018-08-23T04:26:10.117Z,17.80
2018-08-23T04:29:30.381Z,17.85
2018-08-23T04:32:40.345Z,17.79
2018-08-23T04:35:45.269Z,17.81
2018-08-23T04:38:54.953Z,17.87
2018-08-23T04:42:01.356Z,17.89
2018-08-23T04:45:08.692Z,17.93
2018-08-23T04:48:13.688Z,17.93
2018-08-23T04:51:18.637Z,17.83
2018-08-23T04:54:23.603Z,17.66
2018-08-23T04:57:28.694Z,17.71
2018-08-23T05:01:00.343Z,17.81
2018-08-23T05:04:05.366Z,17.84
2018-08-23T05:07:10.192Z,17.87
2018-08-23T05:10:15.087Z,17.93
2018-08-23T05:13:20.002Z,18.01
2018-08-23T05:16:24.934Z,18.05
2018-08-23T05:19:29.874Z,18.08
2018-08-23T05:22:34.801Z,18.12
2018-08-23T05:25:39.709Z,18.20
2018-08-23T05:29:07.350Z,18.29
2018-08-23T05:32:12.304Z,18.42
2018-08-23T05:35:17.228Z,18.48
2018-08-23T05:38:22.191Z,18.51
2018-08-23T05:41:27.090Z,18.68
2018-08-23T05:44:32.005Z,18.78
2018-08-23T05:47:36.988Z,18.75
2018-08-23T05:50:41.856Z,18.97
2018-08-23T05:53:48.755Z,19.17
2018-08-23T05:59:58.081Z,19.47
2018-08-23T06:03:03.049Z,19.41
2018-08-23T06:06:08.311Z,19.28
2018-08-23T06:09:14.786Z,19.31
2018-08-23T06:12:19.707Z,19.35
2018-08-23T06:15:24.750Z,19.29
2018-08-23T06:18:29.675Z,19.26
2018-08-23T06:21:34.581Z,19.09
2018-08-23T06:24:39.485Z,18.99
2018-08-23T06:27:44.390Z,19.02
2018-08-23T06:30:49.378Z,19.19
2018-08-23T06:33:55.909Z,19.60
2018-08-23T06:37:00.797Z,20.12
2018-08-23T06:40:05.749Z,20.66
2018-08-23T06:43:10.636Z,21.13
2018-08-23T06:46:15.542Z,21.58
2018-08-23T06:49:20.434Z,21.94
2018-08-23T06:52:35.401Z,22.37
2018-08-23T06:55:40.369Z,22.83
2018-08-23T06:58:45.353Z,23.22
2018-08-23T07:01:50.297Z,23.58
2018-08-23T07:04:55.241Z,23.78
2018-08-23T07:08:00.185Z,24.08
2018-08-23T07:11:11.402Z,24.57
2018-08-23T07:14:17.581Z,25.07
2018-08-23T07:17:25.472Z,25.47
2018-08-23T07:20:30.437Z,25.96
2018-08-23T07:23:35.976Z,26.41
2018-08-23T07:26:41.222Z,26.90
2018-08-23T07:29:50.391Z,27.26
2018-08-23T07:32:55.272Z,27.74
2018-08-23T07:36:14.593Z,27.80
2018-08-23T07:39:19.551Z,27.55
2018-08-23T07:42:26.688Z,27.22
2018-08-23T07:45:39.243Z,27.02
2018-08-23T07:48:44.211Z,26.84
2018-08-23T07:51:50.521Z,26.95
2018-08-23T07:54:55.944Z,26.92
2018-08-23T07:58:00.895Z,27.12
2018-08-23T08:01:05.894Z,27.61
2018-08-23T08:04:10.846Z,28.12
2018-08-23T08:07:18.477Z,28.04
2018-08-23T08:10:23.485Z,28.00
2018-08-23T08:13:28.925Z,28.05
2018-08-23T08:16:33.865Z,28.18
2018-08-23T08:19:40.788Z,28.27
2018-08-23T08:22:45.770Z,27.98
2018-08-23T08:25:50.724Z,27.75
2018-08-23T08:28:55.673Z,27.42
2018-08-23T08:32:01.480Z,27.47
2018-08-23T08:35:11.068Z,27.41
2018-08-23T08:38:16.053Z,27.44
2018-08-23T08:41:21.001Z,27.44
2018-08-23T08:44:25.958Z,27.54
2018-08-23T08:47:31.105Z,27.61
2018-08-23T08:50:40.642Z,27.68
2018-08-23T08:53:46.196Z,27.66
2018-08-23T08:56:51.251Z,28.12
2018-08-23T08:59:56.113Z,28.93
2018-08-23T09:03:01.072Z,29.38
2018-08-23T09:06:07.268Z,29.84
2018-08-23T09:09:25.973Z,30.41
2018-08-23T09:12:31.793Z,30.62
2018-08-23T09:15:36.709Z,30.14
2018-08-23T09:18:45.085Z,29.84
2018-08-23T09:21:58.702Z,30.02
2018-08-23T09:25:06.888Z,29.86
2018-08-23T09:28:11.878Z,30.12
2018-08-23T09:31:17.017Z,30.43
2018-08-23T09:34:22.473Z,31.28
2018-08-23T09:37:28.621Z,32.04
2018-08-23T09:40:33.848Z,32.45
2018-08-23T09:43:39.055Z,32.60
2018-08-23T09:46:48.513Z,32.85
2018-08-23T09:49:53.873Z,32.80
2018-08-23T09:52:59.024Z,33.03
2018-08-23T09:56:04.808Z,32.95
2018-08-23T09:59:27.716Z,32.52
2018-08-23T10:03:22.464Z,32.62
2018-08-23T10:06:33.296Z,32.77
2018-08-23T10:09:43.974Z,33.02
2018-08-23T10:12:55.045Z,33.24
2018-08-23T10:16:05.766Z,33.53
2018-08-23T10:23:15.270Z,33.26
2018-08-23T10:26:29.786Z,33.41
2018-08-23T10:29:34.701Z,33.20
2018-08-23T10:32:40.319Z,33.37
2018-08-23T10:35:46.381Z,33.41
2018-08-23T10:38:51.389Z,33.43
2018-08-23T10:41:56.369Z,33.52
2018-08-23T10:45:01.430Z,33.05
2018-08-23T10:48:12.046Z,33.53
2018-08-23T10:51:17.033Z,34.09
2018-08-23T10:54:21.980Z,34.30
2018-08-23T10:57:26.978Z,34.65
2018-08-23T11:00:31.912Z,34.31
2018-08-23T11:03:36.848Z,34.33
2018-08-23T11:06:47.532Z,34.23
2018-08-23T11:09:58.080Z,33.87
2018-08-23T11:13:08.684Z,33.51
2018-08-23T11:16:19.608Z,33.08
2018-08-23T11:19:30.129Z,33.31
2018-08-23T11:22:36.910Z,33.42
2018-08-23T11:25:41.916Z,33.82
2018-08-23T11:28:47.317Z,34.22
2018-08-23T11:31:52.728Z,34.34
2018-08-23T11:34:57.810Z,34.25
2018-08-23T11:38:02.756Z,34.33
2018-08-23T11:41:07.943Z,34.23
2018-08-23T11:44:12.966Z,33.88
2018-08-23T11:47:18.369Z,33.85
2018-08-23T11:50:23.485Z,33.83
2018-08-23T11:53:28.651Z,33.81
2018-08-23T11:56:33.669Z,33.88
2018-08-23T12:03:49.006Z,33.66
2018-08-23T12:10:54.189Z,33.52
2018-08-23T12:14:00.101Z,33.71
2018-08-23T12:17:05.103Z,33.56
2018-08-23T12:20:10.516Z,33.41
2018-08-23T12:23:15.473Z,33.55
2018-08-23T12:26:20.763Z,33.34
2018-08-23T12:29:25.832Z,33.58
2018-08-23T12:32:30.826Z,33.63
2018-08-23T12:35:36.161Z,33.14
2018-08-23T12:38:47.141Z,33.24
2018-08-23T12:41:57.768Z,33.11
2018-08-23T12:45:02.950Z,32.87
2018-08-23T12:48:09.284Z,32.67
2018-08-23T12:51:14.309Z,32.94
2018-08-23T12:54:19.252Z,32.54
2018-08-23T12:57:24.277Z,32.23
2018-08-23T13:00:29.265Z,32.10
2018-08-23T13:03:34.282Z,32.06
2018-08-23T13:06:39.216Z,32.23
2018-08-23T13:09:45.676Z,32.24
2018-08-23T13:12:51.355Z,32.66
2018-08-23T13:15:56.520Z,32.91
2018-08-23T13:19:01.469Z,32.90
2018-08-23T13:22:06.435Z,32.63
2018-08-23T13:25:12.805Z,32.35
2018-08-23T13:28:17.793Z,32.25
2018-08-23T13:31:22.833Z,31.92
2018-08-23T13:34:27.818Z,31.96
2018-08-23T13:37:32.811Z,31.82
2018-08-23T13:40:37.805Z,31.78
2018-08-23T13:43:42.854Z,31.80
2018-08-23T13:46:47.871Z,32.02
2018-08-23T13:49:52.954Z,32.34
2018-08-23T13:52:57.902Z,32.44
2018-08-23T13:56:03.328Z,32.41
2018-08-23T13:59:08.404Z,32.28
2018-08-23T14:02:14.538Z,32.51
2018-08-23T14:05:19.702Z,32.54
2018-08-23T14:08:24.668Z,32.24
2018-08-23T14:11:29.818Z,32.00
2018-08-23T14:14:34.877Z,31.61
2018-08-23T14:17:39.817Z,31.68
2018-08-23T14:20:44.793Z,31.56
2018-08-23T14:23:49.749Z,31.48
2018-08-23T14:26:54.737Z,31.51
2018-08-23T14:29:59.725Z,31.61
2018-08-23T14:33:04.706Z,31.73
2018-08-23T14:36:09.926Z,31.64
2018-08-23T14:39:14.929Z,31.51
2018-08-23T14:42:19.890Z,31.61
2018-08-23T14:45:28.836Z,31.74
2018-08-23T14:48:33.814Z,31.77
2018-08-23T14:51:38.826Z,31.70
2018-08-23T14:54:43.801Z,31.68
2018-08-23T14:57:48.765Z,31.45
2018-08-23T15:00:53.760Z,31.34
2018-08-23T15:03:58.709Z,31.14
2018-08-23T15:07:03.692Z,31.05
2018-08-23T15:10:08.648Z,31.09
2018-08-23T15:13:13.813Z,31.18
2018-08-23T15:16:18.778Z,31.15
2018-08-23T15:19:23.744Z,31.06
2018-08-23T15:22:28.681Z,31.08
2018-08-23T15:25:33.637Z,30.89
2018-08-23T15:28:38.562Z,31.10
2018-08-23T15:31:44.476Z,31.36
2018-08-23T15:34:49.426Z,31.47
2018-08-23T15:37:54.563Z,31.49
2018-08-23T15:40:59.525Z,31.54
2018-08-23T15:44:04.509Z,31.47
2018-08-23T15:47:09.790Z,31.41
2018-08-23T15:50:14.792Z,31.43
2018-08-23T15:53:19.751Z,31.58
2018-08-23T15:56:24.721Z,31.45
2018-08-23T15:59:29.729Z,31.59
2018-08-23T16:02:34.716Z,31.91
2018-08-23T16:05:39.797Z,31.79
2018-08-23T16:08:51.669Z,31.59
2018-08-23T16:11:56.604Z,31.57
2018-08-23T16:15:06.175Z,31.46
2018-08-23T16:18:16.662Z,31.40
2018-08-23T16:21:27.384Z,31.44
2018-08-23T16:24:32.560Z,31.47
2018-08-23T16:27:37.517Z,31.37
2018-08-23T16:30:43.330Z,31.32
2018-08-23T16:33:48.298Z,31.23
2018-08-23T16:37:01.198Z,31.03
2018-08-23T16:40:06.516Z,30.99
2018-08-23T16:43:11.888Z,30.89
2018-08-23T16:46:16.919Z,30.79
2018-08-23T16:49:21.869Z,30.70
2018-08-23T16:52:27.873Z,30.59
2018-08-23T16:55:33.201Z,30.35
2018-08-23T16:58:38.381Z,30.21
2018-08-23T17:01:43.268Z,29.90
2018-08-23T17:04:48.190Z,29.58
2018-08-23T17:07:53.109Z,29.40
2018-08-23T17:10:58.005Z,29.20
2018-08-23T17:14:03.125Z,29.09
2018-08-23T17:17:13.830Z,29.16
2018-08-23T17:20:18.748Z,29.19
2018-08-23T17:23:23.785Z,29.15
2018-08-23T17:26:28.849Z,28.98
2018-08-23T17:29:34.131Z,28.87
2018-08-23T17:32:39.150Z,28.83
2018-08-23T17:35:44.070Z,28.78
2018-08-23T17:38:48.979Z,28.40
2018-08-23T17:41:53.897Z,27.30
2018-08-23T17:44:58.833Z,26.69
2018-08-23T17:48:04.726Z,26.26
2018-08-23T17:51:09.662Z,25.91
2018-08-23T17:54:14.590Z,25.69
2018-08-23T17:57:19.577Z,25.50
2018-08-23T18:00:24.518Z,25.24
2018-08-23T18:03:29.469Z,25.11
2018-08-23T18:06:34.454Z,24.83
2018-08-23T18:09:39.846Z,24.68
2018-08-23T18:12:45.340Z,24.37
2018-08-23T18:15:56.329Z,23.99
2018-08-23T18:19:01.273Z,23.83
2018-08-23T18:22:06.209Z,23.93
2018-08-23T18:25:11.109Z,23.91
2018-08-23T18:28:16.089Z,24.00
2018-08-23T18:31:21.082Z,24.05
2018-08-23T18:34:26.032Z,24.15
2018-08-23T18:37:31.054Z,24.16
2018-08-23T18:40:36.485Z,24.15
2018-08-23T18:43:41.743Z,23.95
2018-08-23T18:46:46.653Z,23.86
2018-08-23T18:52:56.501Z,23.55
2018-08-23T18:56:01.477Z,23.16
2018-08-23T18:59:06.437Z,23.08
2018-08-23T19:02:11.424Z,23.00
2018-08-23T19:05:17.172Z,22.81
2018-08-23T19:08:23.035Z,22.70
2018-08-23T19:11:27.977Z,22.61
2018-08-23T19:14:32.937Z,22.71
2018-08-23T19:17:39.269Z,22.45
2018-08-23T19:20:44.242Z,22.45
2018-08-23T19:23:49.225Z,22.31
2018-08-23T19:26:54.188Z,22.06
2018-08-23T19:30:00.784Z,21.97
2018-08-23T19:33:05.937Z,21.84
2018-08-23T19:36:10.894Z,21.89
2018-08-23T19:39:15.848Z,21.84
2018-08-23T19:42:20.979Z,21.80
2018-08-23T19:45:25.925Z,21.59
2018-08-23T19:48:31.133Z,21.45
2018-08-23T19:51:36.096Z,21.47
2018-08-23T19:54:41.048Z,21.37
2018-08-23T19:57:45.981Z,21.18
2018-08-23T20:00:51.020Z,21.09
2018-08-23T20:03:55.964Z,21.19
2018-08-23T20:07:01.283Z,21.31
2018-08-23T20:10:06.281Z,21.34
2018-08-23T20:13:11.228Z,21.42
2018-08-23T20:16:16.207Z,21.54
2018-08-23T20:19:21.210Z,21.52
2018-08-23T20:22:26.148Z,21.52
2018-08-23T20:25:31.084Z,21.40
2018-08-23T20:28:36.013Z,21.38
2018-08-23T20:31:40.972Z,21.50
2018-08-23T20:34:45.900Z,21.43
2018-08-23T20:37:50.994Z,21.57
2018-08-23T20:40:55.992Z,21.63
2018-08-23T20:44:01.386Z,21.72
2018-08-23T20:47:06.483Z,21.83
2018-08-23T20:50:11.285Z,21.92
2018-08-23T20:53:16.265Z,21.87
2018-08-23T20:56:21.197Z,21.84
2018-08-23T20:59:26.171Z,21.92
2018-08-23T21:02:31.098Z,21.92
2018-08-23T21:05:43.988Z,21.94
2018-08-23T21:08:48.917Z,21.94
2018-08-23T21:11:54.092Z,22.02
2018-08-23T21:14:59.028Z,21.86
2018-08-23T21:18:05.806Z,21.83
2018-08-23T21:21:10.645Z,21.49
2018-08-23T21:24:15.600Z,21.23
2018-08-23T21:27:20.544Z,20.97
2018-08-23T21:30:25.482Z,20.85
2018-08-23T21:33:30.404Z,20.93
2018-08-23T21:36:35.345Z,20.83
2018-08-23T21:39:40.265Z,20.84
2018-08-23T21:42:45.256Z,20.93
2018-08-23T21:45:50.238Z,21.14
2018-08-23T21:48:55.173Z,21.17
2018-08-23T21:52:00.105Z,21.15
2018-08-23T21:55:05.372Z,21.05
2018-08-23T22:02:19.360Z,21.13
2018-08-23T22:05:24.256Z,21.20
2018-08-23T22:08:29.153Z,21.23
2018-08-23T22:11:34.072Z,21.34
2018-08-23T22:14:39.316Z,21.31
2018-08-23T22:17:44.213Z,21.33
2018-08-23T22:20:49.157Z,21.34
2018-08-23T22:23:54.069Z,21.35
2018-08-23T22:26:58.986Z,21.14
2018-08-23T22:30:04.736Z,21.05
2018-08-23T22:33:10.924Z,21.06
2018-08-23T22:36:15.828Z,20.92
2018-08-23T22:39:20.733Z,20.98
2018-08-23T22:42:25.732Z,20.93
2018-08-23T22:45:30.644Z,20.79
2018-08-23T22:48:35.557Z,20.78
2018-08-23T22:51:40.641Z,20.73
2018-08-23T22:54:45.533Z,20.54
2018-08-23T22:57:50.613Z,20.46
2018-08-23T23:00:55.529Z,20.56
2018-08-23T23:04:06.289Z,20.72
2018-08-23T23:07:11.193Z,20.73
2018-08-23T23:10:16.132Z,20.74
2018-08-23T23:13:21.049Z,20.77
2018-08-23T23:16:26.095Z,20.76
2018-08-23T23:19:30.910Z,20.70
2018-08-23T23:22:35.829Z,20.64
2018-08-23T23:25:40.739Z,20.71
2018-08-23T23:28:45.657Z,20.72
2018-08-23T23:31:50.737Z,20.64
2018-08-23T23:34:55.774Z,20.67
2018-08-23T23:38:00.673Z,20.70
2018-08-23T23:41:05.589Z,20.65
2018-08-23T23:44:10.547Z,20.63
2018-08-23T23:47:15.455Z,20.49
2018-08-23T23:50:20.344Z,20.46
2018-08-23T23:53:49.517Z,20.48
2018-08-23T23:56:54.429Z,20.42
2018-08-23T23:59:59.341Z,20.41
